sensor_id;sensor_type;location;lat;lon;timestamp;P1;durP1;ratioP1;P2;durP2;ratioP2
43325;SDS011;28920;59.862;30.636;2023-02-15T00:00:08;18.10;;;6.72;;
43325;SDS011;28920;59.862;30.636;2023-02-15T00:02:38;15.55;;;5.72;;
43325;SDS011;28920;59.862;30.636;2023-02-15T00:05:07;10.70;;;6.25;;
43325;SDS011;28920;59.862;30.636;2023-02-15T00:07:35;12.57;;;5.37;;
43325;SDS011;28920;59.862;30.636;2023-02-15T00:10:04;13.00;;;5.50;;
43325;SDS011;28920;59.862;30.636;2023-02-15T00:12:33;11.75;;;4.68;;
43325;SDS011;28920;59.862;30.636;2023-02-15T00:15:02;9.50;;;5.78;;
43325;SDS011;28920;59.862;30.636;2023-02-15T00:17:31;10.25;;;5.57;;
43325;SDS011;28920;59.862;30.636;2023-02-15T00:19:59;9.68;;;4.85;;
43325;SDS011;28920;59.862;30.636;2023-02-15T00:22:27;6.62;;;4.57;;
43325;SDS011;28920;59.862;30.636;2023-02-15T00:24:56;16.92;;;5.05;;
43325;SDS011;28920;59.862;30.636;2023-02-15T00:27:24;10.77;;;4.93;;
43325;SDS011;28920;59.862;30.636;2023-02-15T00:29:52;12.25;;;5.90;;
43325;SDS011;28920;59.862;30.636;2023-02-15T00:32:22;8.90;;;5.28;;
43325;SDS011;28920;59.862;30.636;2023-02-15T00:34:50;12.00;;;4.80;;
43325;SDS011;28920;59.862;30.636;2023-02-15T00:37:18;11.57;;;5.37;;
43325;SDS011;28920;59.862;30.636;2023-02-15T00:39:47;11.32;;;4.60;;
43325;SDS011;28920;59.862;30.636;2023-02-15T00:42:16;12.50;;;5.20;;
43325;SDS011;28920;59.862;30.636;2023-02-15T00:44:44;8.60;;;4.60;;
43325;SDS011;28920;59.862;30.636;2023-02-15T00:47:13;10.63;;;5.70;;
43325;SDS011;28920;59.862;30.636;2023-02-15T00:49:42;13.68;;;5.50;;
43325;SDS011;28920;59.862;30.636;2023-02-15T00:52:10;15.25;;;8.13;;
43325;SDS011;28920;59.862;30.636;2023-02-15T00:54:39;17.80;;;7.43;;
43325;SDS011;28920;59.862;30.636;2023-02-15T00:57:07;14.30;;;6.55;;
43325;SDS011;28920;59.862;30.636;2023-02-15T00:59:35;11.70;;;6.60;;
43325;SDS011;28920;59.862;30.636;2023-02-15T01:02:03;17.33;;;7.55;;
43325;SDS011;28920;59.862;30.636;2023-02-15T01:04:31;14.05;;;8.07;;
43325;SDS011;28920;59.862;30.636;2023-02-15T01:07:01;16.00;;;7.43;;
43325;SDS011;28920;59.862;30.636;2023-02-15T01:09:32;17.83;;;8.35;;
43325;SDS011;28920;59.862;30.636;2023-02-15T01:12:02;9.10;;;5.72;;
43325;SDS011;28920;59.862;30.636;2023-02-15T01:14:31;13.00;;;6.37;;
43325;SDS011;28920;59.862;30.636;2023-02-15T01:16:59;10.50;;;5.37;;
43325;SDS011;28920;59.862;30.636;2023-02-15T01:19:27;13.32;;;5.18;;
43325;SDS011;28920;59.862;30.636;2023-02-15T01:21:55;10.95;;;5.07;;
43325;SDS011;28920;59.862;30.636;2023-02-15T01:24:25;11.52;;;5.65;;
43325;SDS011;28920;59.862;30.636;2023-02-15T01:26:53;11.60;;;5.62;;
43325;SDS011;28920;59.862;30.636;2023-02-15T01:29:21;9.30;;;5.10;;
43325;SDS011;28920;59.862;30.636;2023-02-15T01:31:49;11.23;;;5.72;;
43325;SDS011;28920;59.862;30.636;2023-02-15T01:34:17;9.90;;;5.25;;
43325;SDS011;28920;59.862;30.636;2023-02-15T01:36:46;14.40;;;5.03;;
43325;SDS011;28920;59.862;30.636;2023-02-15T01:39:14;9.88;;;4.37;;
43325;SDS011;28920;59.862;30.636;2023-02-15T01:41:44;9.85;;;4.53;;
43325;SDS011;28920;59.862;30.636;2023-02-15T01:47:16;10.98;;;4.40;;
43325;SDS011;28920;59.862;30.636;2023-02-15T01:49:50;7.50;;;4.10;;
43325;SDS011;28920;59.862;30.636;2023-02-15T01:52:25;9.63;;;4.90;;
43325;SDS011;28920;59.862;30.636;2023-02-15T01:54:54;9.90;;;5.07;;
43325;SDS011;28920;59.862;30.636;2023-02-15T01:57:23;9.60;;;5.25;;
43325;SDS011;28920;59.862;30.636;2023-02-15T01:59:56;8.68;;;4.40;;
43325;SDS011;28920;59.862;30.636;2023-02-15T02:02:39;9.02;;;5.22;;
43325;SDS011;28920;59.862;30.636;2023-02-15T02:05:08;13.30;;;5.43;;
43325;SDS011;28920;59.862;30.636;2023-02-15T02:07:37;10.50;;;5.15;;
43325;SDS011;28920;59.862;30.636;2023-02-15T02:10:09;20.50;;;7.97;;
43325;SDS011;28920;59.862;30.636;2023-02-15T02:12:40;14.77;;;6.87;;
43325;SDS011;28920;59.862;30.636;2023-02-15T02:15:11;10.93;;;5.95;;
43325;SDS011;28920;59.862;30.636;2023-02-15T02:17:42;16.25;;;5.37;;
43325;SDS011;28920;59.862;30.636;2023-02-15T02:20:30;16.17;;;6.57;;
43325;SDS011;28920;59.862;30.636;2023-02-15T02:23:25;10.98;;;5.60;;
43325;SDS011;28920;59.862;30.636;2023-02-15T02:35:56;8.45;;;4.05;;
43325;SDS011;28920;59.862;30.636;2023-02-15T02:38:29;10.00;;;4.05;;
43325;SDS011;28920;59.862;30.636;2023-02-15T02:41:08;9.32;;;4.50;;
43325;SDS011;28920;59.862;30.636;2023-02-15T02:43:47;7.93;;;3.80;;
43325;SDS011;28920;59.862;30.636;2023-02-15T02:46:20;12.13;;;5.03;;
43325;SDS011;28920;59.862;30.636;2023-02-15T02:48:54;11.07;;;4.53;;
43325;SDS011;28920;59.862;30.636;2023-02-15T02:51:25;7.97;;;4.18;;
43325;SDS011;28920;59.862;30.636;2023-02-15T02:53:53;6.97;;;3.97;;
43325;SDS011;28920;59.862;30.636;2023-02-15T02:56:24;11.10;;;4.22;;
43325;SDS011;28920;59.862;30.636;2023-02-15T03:01:27;6.30;;;3.65;;
43325;SDS011;28920;59.862;30.636;2023-02-15T03:04:01;8.25;;;4.43;;
43325;SDS011;28920;59.862;30.636;2023-02-15T03:06:36;12.20;;;5.37;;
43325;SDS011;28920;59.862;30.636;2023-02-15T03:09:09;7.60;;;4.45;;
43325;SDS011;28920;59.862;30.636;2023-02-15T03:11:48;9.35;;;4.43;;
43325;SDS011;28920;59.862;30.636;2023-02-15T03:14:16;9.05;;;4.87;;
43325;SDS011;28920;59.862;30.636;2023-02-15T03:16:46;13.70;;;5.15;;
43325;SDS011;28920;59.862;30.636;2023-02-15T03:19:19;13.27;;;5.10;;
43325;SDS011;28920;59.862;30.636;2023-02-15T03:21:55;13.23;;;5.47;;
43325;SDS011;28920;59.862;30.636;2023-02-15T03:24:31;11.77;;;5.12;;
43325;SDS011;28920;59.862;30.636;2023-02-15T03:27:03;15.35;;;6.80;;
43325;SDS011;28920;59.862;30.636;2023-02-15T03:29:38;10.50;;;5.85;;
43325;SDS011;28920;59.862;30.636;2023-02-15T03:32:07;18.08;;;6.00;;
43325;SDS011;28920;59.862;30.636;2023-02-15T03:34:38;16.90;;;6.20;;
43325;SDS011;28920;59.862;30.636;2023-02-15T03:37:10;15.60;;;7.05;;
43325;SDS011;28920;59.862;30.636;2023-02-15T03:39:45;14.30;;;7.70;;
43325;SDS011;28920;59.862;30.636;2023-02-15T03:42:19;19.33;;;8.27;;
43325;SDS011;28920;59.862;30.636;2023-02-15T03:44:54;19.42;;;6.93;;
43325;SDS011;28920;59.862;30.636;2023-02-15T03:47:27;20.20;;;8.50;;
43325;SDS011;28920;59.862;30.636;2023-02-15T03:50:00;13.27;;;7.22;;
43325;SDS011;28920;59.862;30.636;2023-02-15T03:52:52;14.23;;;6.80;;
43325;SDS011;28920;59.862;30.636;2023-02-15T03:55:21;17.52;;;7.28;;
43325;SDS011;28920;59.862;30.636;2023-02-15T03:57:49;14.55;;;6.70;;
43325;SDS011;28920;59.862;30.636;2023-02-15T04:00:35;21.75;;;6.72;;
43325;SDS011;28920;59.862;30.636;2023-02-15T04:03:26;13.48;;;6.85;;
43325;SDS011;28920;59.862;30.636;2023-02-15T04:05:59;16.30;;;6.78;;
43325;SDS011;28920;59.862;30.636;2023-02-15T04:08:31;17.90;;;7.47;;
43325;SDS011;28920;59.862;30.636;2023-02-15T04:11:12;18.55;;;6.72;;
43325;SDS011;28920;59.862;30.636;2023-02-15T04:13:41;16.98;;;7.47;;
43325;SDS011;28920;59.862;30.636;2023-02-15T04:16:09;13.38;;;7.12;;
43325;SDS011;28920;59.862;30.636;2023-02-15T04:18:37;14.68;;;8.40;;
43325;SDS011;28920;59.862;30.636;2023-02-15T04:21:25;16.58;;;7.28;;
43325;SDS011;28920;59.862;30.636;2023-02-15T04:24:13;17.80;;;8.15;;
43325;SDS011;28920;59.862;30.636;2023-02-15T04:27:00;18.12;;;8.27;;
43325;SDS011;28920;59.862;30.636;2023-02-15T04:29:29;17.52;;;7.95;;
43325;SDS011;28920;59.862;30.636;2023-02-15T04:31:59;20.52;;;9.45;;
43325;SDS011;28920;59.862;30.636;2023-02-15T04:34:28;14.48;;;8.70;;
43325;SDS011;28920;59.862;30.636;2023-02-15T04:36:56;16.27;;;8.15;;
43325;SDS011;28920;59.862;30.636;2023-02-15T04:39:26;17.42;;;9.65;;
43325;SDS011;28920;59.862;30.636;2023-02-15T04:41:54;13.80;;;8.23;;
43325;SDS011;28920;59.862;30.636;2023-02-15T04:44:22;14.80;;;7.57;;
43325;SDS011;28920;59.862;30.636;2023-02-15T04:46:50;15.32;;;8.38;;
43325;SDS011;28920;59.862;30.636;2023-02-15T04:49:19;11.52;;;7.05;;
43325;SDS011;28920;59.862;30.636;2023-02-15T04:51:47;12.32;;;6.82;;
43325;SDS011;28920;59.862;30.636;2023-02-15T04:54:15;17.70;;;6.70;;
43325;SDS011;28920;59.862;30.636;2023-02-15T04:56:45;11.00;;;6.68;;
43325;SDS011;28920;59.862;30.636;2023-02-15T04:59:13;14.77;;;7.18;;
43325;SDS011;28920;59.862;30.636;2023-02-15T05:01:41;14.90;;;7.65;;
43325;SDS011;28920;59.862;30.636;2023-02-15T05:04:09;21.15;;;9.05;;
43325;SDS011;28920;59.862;30.636;2023-02-15T05:06:37;31.23;;;10.75;;
43325;SDS011;28920;59.862;30.636;2023-02-15T05:09:05;18.52;;;8.98;;
43325;SDS011;28920;59.862;30.636;2023-02-15T05:11:34;14.45;;;7.07;;
43325;SDS011;28920;59.862;30.636;2023-02-15T05:14:03;12.75;;;6.47;;
43325;SDS011;28920;59.862;30.636;2023-02-15T05:16:31;14.15;;;7.53;;
43325;SDS011;28920;59.862;30.636;2023-02-15T05:19:00;13.98;;;6.68;;
43325;SDS011;28920;59.862;30.636;2023-02-15T05:21:28;15.20;;;6.57;;
43325;SDS011;28920;59.862;30.636;2023-02-15T05:23:56;14.27;;;8.00;;
43325;SDS011;28920;59.862;30.636;2023-02-15T05:26:25;10.98;;;6.47;;
43325;SDS011;28920;59.862;30.636;2023-02-15T05:29:11;14.60;;;6.93;;
43325;SDS011;28920;59.862;30.636;2023-02-15T05:31:40;14.57;;;7.55;;
43325;SDS011;28920;59.862;30.636;2023-02-15T05:34:10;18.35;;;9.00;;
43325;SDS011;28920;59.862;30.636;2023-02-15T05:36:38;16.00;;;8.15;;
43325;SDS011;28920;59.862;30.636;2023-02-15T05:39:06;15.90;;;7.78;;
43325;SDS011;28920;59.862;30.636;2023-02-15T05:41:34;13.80;;;8.02;;
43325;SDS011;28920;59.862;30.636;2023-02-15T05:44:02;20.15;;;7.82;;
43325;SDS011;28920;59.862;30.636;2023-02-15T05:46:32;15.38;;;8.68;;
43325;SDS011;28920;59.862;30.636;2023-02-15T05:49:00;15.95;;;6.82;;
43325;SDS011;28920;59.862;30.636;2023-02-15T05:51:28;9.68;;;5.87;;
43325;SDS011;28920;59.862;30.636;2023-02-15T05:53:57;14.90;;;6.97;;
43325;SDS011;28920;59.862;30.636;2023-02-15T05:56:25;12.52;;;6.30;;
43325;SDS011;28920;59.862;30.636;2023-02-15T05:58:53;10.90;;;5.55;;
43325;SDS011;28920;59.862;30.636;2023-02-15T06:01:21;14.48;;;6.57;;
43325;SDS011;28920;59.862;30.636;2023-02-15T06:03:51;12.55;;;6.93;;
43325;SDS011;28920;59.862;30.636;2023-02-15T06:06:20;11.65;;;6.18;;
43325;SDS011;28920;59.862;30.636;2023-02-15T06:08:48;12.93;;;6.75;;
43325;SDS011;28920;59.862;30.636;2023-02-15T06:11:17;12.25;;;6.65;;
43325;SDS011;28920;59.862;30.636;2023-02-15T06:13:44;17.40;;;6.80;;
43325;SDS011;28920;59.862;30.636;2023-02-15T06:16:13;11.38;;;6.93;;
43325;SDS011;28920;59.862;30.636;2023-02-15T06:18:42;12.93;;;6.72;;
43325;SDS011;28920;59.862;30.636;2023-02-15T06:21:11;9.98;;;5.72;;
43325;SDS011;28920;59.862;30.636;2023-02-15T06:23:40;13.23;;;5.60;;
43325;SDS011;28920;59.862;30.636;2023-02-15T06:26:08;20.48;;;7.00;;
43325;SDS011;28920;59.862;30.636;2023-02-15T06:28:36;12.25;;;5.97;;
43325;SDS011;28920;59.862;30.636;2023-02-15T06:31:04;8.70;;;4.97;;
43325;SDS011;28920;59.862;30.636;2023-02-15T06:33:33;12.82;;;6.00;;
43325;SDS011;28920;59.862;30.636;2023-02-15T06:36:01;10.85;;;5.32;;
43325;SDS011;28920;59.862;30.636;2023-02-15T06:38:31;8.13;;;5.32;;
43325;SDS011;28920;59.862;30.636;2023-02-15T06:40:59;11.18;;;5.22;;
43325;SDS011;28920;59.862;30.636;2023-02-15T06:43:27;9.43;;;4.85;;
43325;SDS011;28920;59.862;30.636;2023-02-15T06:45:55;9.18;;;5.65;;
43325;SDS011;28920;59.862;30.636;2023-02-15T06:48:24;13.43;;;4.95;;
43325;SDS011;28920;59.862;30.636;2023-02-15T06:50:52;8.85;;;4.85;;
43325;SDS011;28920;59.862;30.636;2023-02-15T06:53:20;8.10;;;4.80;;
43325;SDS011;28920;59.862;30.636;2023-02-15T06:55:50;10.85;;;5.70;;
43325;SDS011;28920;59.862;30.636;2023-02-15T06:58:18;12.88;;;6.00;;
43325;SDS011;28920;59.862;30.636;2023-02-15T07:00:46;13.10;;;6.57;;
43325;SDS011;28920;59.862;30.636;2023-02-15T07:03:15;11.55;;;6.25;;
43325;SDS011;28920;59.862;30.636;2023-02-15T07:05:43;10.00;;;5.12;;
43325;SDS011;28920;59.862;30.636;2023-02-15T07:08:13;7.28;;;4.60;;
43325;SDS011;28920;59.862;30.636;2023-02-15T07:10:43;6.87;;;4.68;;
43325;SDS011;28920;59.862;30.636;2023-02-15T07:13:12;9.05;;;4.82;;
43325;SDS011;28920;59.862;30.636;2023-02-15T07:15:39;9.23;;;4.22;;
43325;SDS011;28920;59.862;30.636;2023-02-15T07:18:08;7.25;;;3.60;;
43325;SDS011;28920;59.862;30.636;2023-02-15T07:20:36;9.15;;;4.32;;
43325;SDS011;28920;59.862;30.636;2023-02-15T07:23:08;9.75;;;4.55;;
43325;SDS011;28920;59.862;30.636;2023-02-15T07:25:36;8.43;;;4.60;;
43325;SDS011;28920;59.862;30.636;2023-02-15T07:28:04;9.25;;;4.50;;
43325;SDS011;28920;59.862;30.636;2023-02-15T07:30:33;10.77;;;4.55;;
43325;SDS011;28920;59.862;30.636;2023-02-15T07:33:02;9.32;;;5.85;;
43325;SDS011;28920;59.862;30.636;2023-02-15T07:35:48;9.15;;;4.68;;
43325;SDS011;28920;59.862;30.636;2023-02-15T07:38:16;11.77;;;5.50;;
43325;SDS011;28920;59.862;30.636;2023-02-15T07:40:45;9.38;;;5.45;;
43325;SDS011;28920;59.862;30.636;2023-02-15T07:43:13;8.35;;;5.03;;
43325;SDS011;28920;59.862;30.636;2023-02-15T07:45:43;50.67;;;21.90;;
43325;SDS011;28920;59.862;30.636;2023-02-15T07:48:11;50.15;;;25.10;;
43325;SDS011;28920;59.862;30.636;2023-02-15T07:50:39;29.63;;;16.33;;
43325;SDS011;28920;59.862;30.636;2023-02-15T07:53:07;13.27;;;6.40;;
43325;SDS011;28920;59.862;30.636;2023-02-15T07:55:35;10.13;;;5.95;;
43325;SDS011;28920;59.862;30.636;2023-02-15T07:58:04;11.98;;;6.20;;
43325;SDS011;28920;59.862;30.636;2023-02-15T08:00:32;11.85;;;6.35;;
43325;SDS011;28920;59.862;30.636;2023-02-15T08:03:23;11.65;;;5.97;;
43325;SDS011;28920;59.862;30.636;2023-02-15T08:05:55;12.32;;;6.05;;
43325;SDS011;28920;59.862;30.636;2023-02-15T08:10:59;9.35;;;5.05;;
43325;SDS011;28920;59.862;30.636;2023-02-15T08:13:47;11.82;;;5.43;;
43325;SDS011;28920;59.862;30.636;2023-02-15T08:16:22;9.30;;;5.87;;
43325;SDS011;28920;59.862;30.636;2023-02-15T08:18:53;11.48;;;5.62;;
43325;SDS011;28920;59.862;30.636;2023-02-15T08:21:21;12.88;;;6.10;;
43325;SDS011;28920;59.862;30.636;2023-02-15T08:23:50;12.52;;;6.22;;
43325;SDS011;28920;59.862;30.636;2023-02-15T08:26:19;11.90;;;7.03;;
43325;SDS011;28920;59.862;30.636;2023-02-15T08:28:47;9.50;;;6.40;;
43325;SDS011;28920;59.862;30.636;2023-02-15T08:31:15;12.48;;;5.72;;
43325;SDS011;28920;59.862;30.636;2023-02-15T08:33:44;14.80;;;5.32;;
43325;SDS011;28920;59.862;30.636;2023-02-15T08:36:15;8.70;;;5.47;;
43325;SDS011;28920;59.862;30.636;2023-02-15T08:38:45;10.00;;;5.53;;
43325;SDS011;28920;59.862;30.636;2023-02-15T08:41:14;8.57;;;5.37;;
43325;SDS011;28920;59.862;30.636;2023-02-15T08:43:43;9.80;;;5.47;;
43325;SDS011;28920;59.862;30.636;2023-02-15T08:46:12;8.20;;;5.37;;
43325;SDS011;28920;59.862;30.636;2023-02-15T08:48:41;10.70;;;5.80;;
43325;SDS011;28920;59.862;30.636;2023-02-15T08:51:09;13.25;;;5.62;;
43325;SDS011;28920;59.862;30.636;2023-02-15T08:53:41;12.07;;;7.57;;
43325;SDS011;28920;59.862;30.636;2023-02-15T08:56:11;15.82;;;9.23;;
43325;SDS011;28920;59.862;30.636;2023-02-15T08:58:39;13.13;;;7.43;;
43325;SDS011;28920;59.862;30.636;2023-02-15T09:01:08;12.05;;;5.78;;
43325;SDS011;28920;59.862;30.636;2023-02-15T09:03:37;11.63;;;7.05;;
43325;SDS011;28920;59.862;30.636;2023-02-15T09:06:05;12.10;;;6.60;;
43325;SDS011;28920;59.862;30.636;2023-02-15T09:08:34;13.00;;;8.52;;
43325;SDS011;28920;59.862;30.636;2023-02-15T09:11:07;19.12;;;7.60;;
43325;SDS011;28920;59.862;30.636;2023-02-15T09:13:37;13.50;;;7.03;;
43325;SDS011;28920;59.862;30.636;2023-02-15T09:16:06;14.87;;;8.63;;
43325;SDS011;28920;59.862;30.636;2023-02-15T09:18:36;13.75;;;8.68;;
43325;SDS011;28920;59.862;30.636;2023-02-15T09:21:06;14.35;;;7.85;;
43325;SDS011;28920;59.862;30.636;2023-02-15T09:23:36;16.67;;;8.32;;
43325;SDS011;28920;59.862;30.636;2023-02-15T09:26:04;14.57;;;8.93;;
43325;SDS011;28920;59.862;30.636;2023-02-15T09:28:36;11.77;;;7.43;;
43325;SDS011;28920;59.862;30.636;2023-02-15T09:31:04;14.15;;;7.07;;
43325;SDS011;28920;59.862;30.636;2023-02-15T09:33:34;16.75;;;7.78;;
43325;SDS011;28920;59.862;30.636;2023-02-15T09:36:02;14.93;;;8.23;;
43325;SDS011;28920;59.862;30.636;2023-02-15T09:38:30;14.77;;;7.85;;
43325;SDS011;28920;59.862;30.636;2023-02-15T09:41:03;18.92;;;9.60;;
43325;SDS011;28920;59.862;30.636;2023-02-15T09:43:42;20.77;;;11.70;;
43325;SDS011;28920;59.862;30.636;2023-02-15T09:46:25;16.17;;;8.98;;
43325;SDS011;28920;59.862;30.636;2023-02-15T09:49:04;16.90;;;8.73;;
43325;SDS011;28920;59.862;30.636;2023-02-15T09:51:56;13.80;;;7.70;;
43325;SDS011;28920;59.862;30.636;2023-02-15T09:54:51;12.40;;;6.70;;
43325;SDS011;28920;59.862;30.636;2023-02-15T09:57:33;14.77;;;6.35;;
43325;SDS011;28920;59.862;30.636;2023-02-15T10:00:06;10.15;;;5.05;;
43325;SDS011;28920;59.862;30.636;2023-02-15T10:02:53;13.07;;;6.32;;
43325;SDS011;28920;59.862;30.636;2023-02-15T10:05:40;13.43;;;4.28;;
43325;SDS011;28920;59.862;30.636;2023-02-15T10:08:29;6.97;;;4.43;;
43325;SDS011;28920;59.862;30.636;2023-02-15T10:11:10;6.78;;;3.95;;
43325;SDS011;28920;59.862;30.636;2023-02-15T10:14:06;9.13;;;4.18;;
43325;SDS011;28920;59.862;30.636;2023-02-15T10:16:48;7.10;;;3.30;;
43325;SDS011;28920;59.862;30.636;2023-02-15T10:19:25;9.18;;;3.85;;
43325;SDS011;28920;59.862;30.636;2023-02-15T10:22:05;9.52;;;3.87;;
43325;SDS011;28920;59.862;30.636;2023-02-15T10:24:45;6.28;;;3.05;;
43325;SDS011;28920;59.862;30.636;2023-02-15T10:27:22;8.53;;;3.20;;
43325;SDS011;28920;59.862;30.636;2023-02-15T10:29:55;10.18;;;4.18;;
43325;SDS011;28920;59.862;30.636;2023-02-15T10:32:35;8.02;;;4.50;;
43325;SDS011;28920;59.862;30.636;2023-02-15T10:35:13;7.43;;;4.37;;
43325;SDS011;28920;59.862;30.636;2023-02-15T10:37:49;9.13;;;4.07;;
43325;SDS011;28920;59.862;30.636;2023-02-15T10:40:30;6.25;;;3.95;;
43325;SDS011;28920;59.862;30.636;2023-02-15T10:46:01;9.35;;;4.60;;
43325;SDS011;28920;59.862;30.636;2023-02-15T10:48:47;9.57;;;5.20;;
43325;SDS011;28920;59.862;30.636;2023-02-15T10:51:32;10.23;;;4.45;;
43325;SDS011;28920;59.862;30.636;2023-02-15T10:54:09;7.68;;;5.07;;
43325;SDS011;28920;59.862;30.636;2023-02-15T10:56:51;11.10;;;5.40;;
43325;SDS011;28920;59.862;30.636;2023-02-15T10:59:37;10.32;;;4.47;;
43325;SDS011;28920;59.862;30.636;2023-02-15T11:02:23;8.70;;;4.68;;
43325;SDS011;28920;59.862;30.636;2023-02-15T11:05:02;10.13;;;5.35;;
43325;SDS011;28920;59.862;30.636;2023-02-15T11:07:48;7.43;;;3.92;;
43325;SDS011;28920;59.862;30.636;2023-02-15T11:10:22;6.85;;;4.53;;
43325;SDS011;28920;59.862;30.636;2023-02-15T11:12:57;9.50;;;4.37;;
43325;SDS011;28920;59.862;30.636;2023-02-15T11:15:30;7.10;;;4.95;;
43325;SDS011;28920;59.862;30.636;2023-02-15T11:18:05;12.88;;;5.12;;
43325;SDS011;28920;59.862;30.636;2023-02-15T11:20:38;11.55;;;5.47;;
43325;SDS011;28920;59.862;30.636;2023-02-15T11:23:13;15.45;;;5.65;;
43325;SDS011;28920;59.862;30.636;2023-02-15T11:25:44;11.18;;;4.68;;
43325;SDS011;28920;59.862;30.636;2023-02-15T11:28:17;8.80;;;4.75;;
43325;SDS011;28920;59.862;30.636;2023-02-15T11:30:50;7.82;;;4.10;;
43325;SDS011;28920;59.862;30.636;2023-02-15T11:33:25;11.35;;;5.62;;
43325;SDS011;28920;59.862;30.636;2023-02-15T11:35:58;11.10;;;5.30;;
43325;SDS011;28920;59.862;30.636;2023-02-15T11:38:31;12.43;;;4.50;;
43325;SDS011;28920;59.862;30.636;2023-02-15T11:41:01;8.40;;;4.80;;
43325;SDS011;28920;59.862;30.636;2023-02-15T11:43:33;11.35;;;5.82;;
43325;SDS011;28920;59.862;30.636;2023-02-15T11:46:05;14.32;;;6.05;;
43325;SDS011;28920;59.862;30.636;2023-02-15T11:48:39;8.20;;;4.75;;
43325;SDS011;28920;59.862;30.636;2023-02-15T11:51:08;9.85;;;5.47;;
43325;SDS011;28920;59.862;30.636;2023-02-15T11:53:40;9.82;;;5.75;;
43325;SDS011;28920;59.862;30.636;2023-02-15T11:56:12;8.77;;;5.22;;
43325;SDS011;28920;59.862;30.636;2023-02-15T11:58:42;11.23;;;4.47;;
43325;SDS011;28920;59.862;30.636;2023-02-15T12:01:16;9.88;;;4.35;;
43325;SDS011;28920;59.862;30.636;2023-02-15T12:03:51;8.48;;;3.25;;
43325;SDS011;28920;59.862;30.636;2023-02-15T12:06:23;10.43;;;4.05;;
43325;SDS011;28920;59.862;30.636;2023-02-15T12:11:25;6.30;;;3.72;;
43325;SDS011;28920;59.862;30.636;2023-02-15T12:14:03;8.15;;;3.40;;
43325;SDS011;28920;59.862;30.636;2023-02-15T12:16:34;7.70;;;3.28;;
43325;SDS011;28920;59.862;30.636;2023-02-15T12:19:18;5.57;;;2.60;;
43325;SDS011;28920;59.862;30.636;2023-02-15T12:21:56;8.82;;;4.07;;
43325;SDS011;28920;59.862;30.636;2023-02-15T12:24:26;6.12;;;3.40;;
43325;SDS011;28920;59.862;30.636;2023-02-15T12:26:57;10.10;;;4.78;;
43325;SDS011;28920;59.862;30.636;2023-02-15T12:29:30;5.85;;;3.62;;
43325;SDS011;28920;59.862;30.636;2023-02-15T12:32:02;6.43;;;2.53;;
43325;SDS011;28920;59.862;30.636;2023-02-15T12:34:35;4.57;;;2.78;;
43325;SDS011;28920;59.862;30.636;2023-02-15T12:37:14;7.03;;;3.97;;
43325;SDS011;28920;59.862;30.636;2023-02-15T12:39:50;17.87;;;7.12;;
43325;SDS011;28920;59.862;30.636;2023-02-15T12:42:20;18.58;;;9.18;;
43325;SDS011;28920;59.862;30.636;2023-02-15T12:44:54;7.65;;;3.87;;
43325;SDS011;28920;59.862;30.636;2023-02-15T12:47:24;6.03;;;2.80;;
43325;SDS011;28920;59.862;30.636;2023-02-15T12:53:05;19.98;;;7.90;;
43325;SDS011;28920;59.862;30.636;2023-02-15T12:55:35;17.62;;;9.10;;
43325;SDS011;28920;59.862;30.636;2023-02-15T12:58:07;8.90;;;5.10;;
43325;SDS011;28920;59.862;30.636;2023-02-15T13:00:36;7.90;;;3.53;;
43325;SDS011;28920;59.862;30.636;2023-02-15T13:03:04;7.57;;;3.90;;
43325;SDS011;28920;59.862;30.636;2023-02-15T13:05:44;8.10;;;3.53;;
43325;SDS011;28920;59.862;30.636;2023-02-15T13:08:16;7.75;;;3.47;;
43325;SDS011;28920;59.862;30.636;2023-02-15T13:10:52;10.52;;;4.15;;
43325;SDS011;28920;59.862;30.636;2023-02-15T13:13:22;9.32;;;4.12;;
43325;SDS011;28920;59.862;30.636;2023-02-15T13:15:53;7.35;;;4.12;;
43325;SDS011;28920;59.862;30.636;2023-02-15T13:18:28;5.68;;;3.45;;
43325;SDS011;28920;59.862;30.636;2023-02-15T13:21:06;6.87;;;3.53;;
43325;SDS011;28920;59.862;30.636;2023-02-15T13:23:39;7.25;;;3.78;;
43325;SDS011;28920;59.862;30.636;2023-02-15T13:26:14;7.75;;;2.85;;
43325;SDS011;28920;59.862;30.636;2023-02-15T13:28:46;8.18;;;3.28;;
43325;SDS011;28920;59.862;30.636;2023-02-15T13:31:17;5.00;;;3.03;;
43325;SDS011;28920;59.862;30.636;2023-02-15T13:33:48;7.67;;;2.73;;
43325;SDS011;28920;59.862;30.636;2023-02-15T13:36:22;8.73;;;3.70;;
43325;SDS011;28920;59.862;30.636;2023-02-15T13:38:57;12.37;;;3.30;;
43325;SDS011;28920;59.862;30.636;2023-02-15T13:41:38;10.32;;;3.47;;
43325;SDS011;28920;59.862;30.636;2023-02-15T13:44:23;10.23;;;5.07;;
43325;SDS011;28920;59.862;30.636;2023-02-15T13:47:17;10.13;;;3.53;;
43325;SDS011;28920;59.862;30.636;2023-02-15T13:49:56;6.72;;;2.78;;
43325;SDS011;28920;59.862;30.636;2023-02-15T13:52:38;6.18;;;3.17;;
43325;SDS011;28920;59.862;30.636;2023-02-15T13:55:23;9.70;;;3.53;;
43325;SDS011;28920;59.862;30.636;2023-02-15T14:01:04;11.82;;;5.00;;
43325;SDS011;28920;59.862;30.636;2023-02-15T14:03:42;8.95;;;4.22;;
43325;SDS011;28920;59.862;30.636;2023-02-15T14:06:28;7.78;;;3.55;;
43325;SDS011;28920;59.862;30.636;2023-02-15T14:09:18;10.30;;;5.22;;
43325;SDS011;28920;59.862;30.636;2023-02-15T14:12:00;9.52;;;4.80;;
43325;SDS011;28920;59.862;30.636;2023-02-15T14:15:01;5.13;;;2.60;;
43325;SDS011;28920;59.862;30.636;2023-02-15T14:17:41;9.73;;;3.15;;
43325;SDS011;28920;59.862;30.636;2023-02-15T14:20:17;8.20;;;2.92;;
43325;SDS011;28920;59.862;30.636;2023-02-15T14:22:53;8.13;;;3.42;;
43325;SDS011;28920;59.862;30.636;2023-02-15T14:25:33;6.93;;;3.00;;
43325;SDS011;28920;59.862;30.636;2023-02-15T14:28:08;9.85;;;3.53;;
43325;SDS011;28920;59.862;30.636;2023-02-15T14:30:41;6.62;;;2.58;;
43325;SDS011;28920;59.862;30.636;2023-02-15T14:33:21;7.45;;;3.03;;
43325;SDS011;28920;59.862;30.636;2023-02-15T14:35:59;7.60;;;2.72;;
43325;SDS011;28920;59.862;30.636;2023-02-15T14:38:32;6.57;;;3.15;;
43325;SDS011;28920;59.862;30.636;2023-02-15T14:41:23;5.82;;;2.65;;
43325;SDS011;28920;59.862;30.636;2023-02-15T14:43:59;7.55;;;3.53;;
43325;SDS011;28920;59.862;30.636;2023-02-15T14:46:35;7.18;;;2.90;;
43325;SDS011;28920;59.862;30.636;2023-02-15T14:49:10;6.37;;;2.50;;
43325;SDS011;28920;59.862;30.636;2023-02-15T14:51:56;6.43;;;3.28;;
43325;SDS011;28920;59.862;30.636;2023-02-15T14:57:25;5.03;;;2.60;;
43325;SDS011;28920;59.862;30.636;2023-02-15T15:00:01;6.12;;;2.33;;
43325;SDS011;28920;59.862;30.636;2023-02-15T15:02:45;4.70;;;2.72;;
43325;SDS011;28920;59.862;30.636;2023-02-15T15:05:17;5.47;;;2.92;;
43325;SDS011;28920;59.862;30.636;2023-02-15T15:16:27;6.72;;;3.58;;
43325;SDS011;28920;59.862;30.636;2023-02-15T15:18:58;7.65;;;3.30;;
43325;SDS011;28920;59.862;30.636;2023-02-15T15:32:59;4.70;;;2.17;;
43325;SDS011;28920;59.862;30.636;2023-02-15T15:35:44;6.72;;;2.40;;
43325;SDS011;28920;59.862;30.636;2023-02-15T15:38:27;4.53;;;2.05;;
43325;SDS011;28920;59.862;30.636;2023-02-15T15:41:16;6.47;;;2.37;;
43325;SDS011;28920;59.862;30.636;2023-02-15T15:43:57;5.47;;;3.40;;
43325;SDS011;28920;59.862;30.636;2023-02-15T15:50:04;5.00;;;2.33;;
43325;SDS011;28920;59.862;30.636;2023-02-15T15:52:39;6.40;;;2.28;;
43325;SDS011;28920;59.862;30.636;2023-02-15T15:55:14;5.80;;;2.97;;